sensor_id;sensor_type;location;lat;lon;timestamp;temperature;humidity
14775;DHT22;7479;47.042;15.160;2023-03-11T07:20:47;7.70;62.70
14775;DHT22;7479;47.042;15.160;2023-03-11T07:40:41;8.00;61.90
14775;DHT22;7479;47.042;15.160;2023-03-11T08:48:06;8.80;53.30
14775;DHT22;7479;47.042;15.160;2023-03-11T09:00:19;9.10;52.70
14775;DHT22;7479;47.042;15.160;2023-03-11T09:05:14;9.10;51.70
14775;DHT22;7479;47.042;15.160;2023-03-11T09:10:10;9.30;52.80
14775;DHT22;7479;47.042;15.160;2023-03-11T09:24:42;9.70;51.30
14775;DHT22;7479;47.042;15.160;2023-03-11T09:37:37;10.10;48.50
14775;DHT22;7479;47.042;15.160;2023-03-11T09:42:37;10.10;50.60
14775;DHT22;7479;47.042;15.160;2023-03-11T09:47:37;10.10;48.70
14775;DHT22;7479;47.042;15.160;2023-03-11T09:52:39;10.10;48.40
14775;DHT22;7479;47.042;15.160;2023-03-11T09:57:36;10.30;47.70
14775;DHT22;7479;47.042;15.160;2023-03-11T10:02:30;10.40;48.10
14775;DHT22;7479;47.042;15.160;2023-03-11T10:07:27;10.40;48.00
14775;DHT22;7479;47.042;15.160;2023-03-11T10:12:38;10.40;46.90
14775;DHT22;7479;47.042;15.160;2023-03-11T10:17:48;10.60;48.80
14775;DHT22;7479;47.042;15.160;2023-03-11T10:22:51;10.80;46.40
14775;DHT22;7479;47.042;15.160;2023-03-11T10:27:53;10.90;47.80
14775;DHT22;7479;47.042;15.160;2023-03-11T10:32:50;10.90;46.00
14775;DHT22;7479;47.042;15.160;2023-03-11T10:37:50;10.90;45.70
14775;DHT22;7479;47.042;15.160;2023-03-11T10:42:46;11.00;45.60
14775;DHT22;7479;47.042;15.160;2023-03-11T10:47:41;11.00;45.20
14775;DHT22;7479;47.042;15.160;2023-03-11T10:52:42;11.40;45.20
14775;DHT22;7479;47.042;15.160;2023-03-11T10:57:37;11.70;43.30
14775;DHT22;7479;47.042;15.160;2023-03-11T11:02:32;11.20;43.50
14775;DHT22;7479;47.042;15.160;2023-03-11T11:07:33;11.50;42.80
14775;DHT22;7479;47.042;15.160;2023-03-11T11:12:27;11.30;43.40
14775;DHT22;7479;47.042;15.160;2023-03-11T11:17:23;11.80;42.80
14775;DHT22;7479;47.042;15.160;2023-03-11T11:22:20;12.10;42.90
14775;DHT22;7479;47.042;15.160;2023-03-11T11:27:19;12.80;43.20
14775;DHT22;7479;47.042;15.160;2023-03-11T11:32:18;13.20;41.70
14775;DHT22;7479;47.042;15.160;2023-03-11T11:37:15;13.40;40.60
14775;DHT22;7479;47.042;15.160;2023-03-11T11:42:11;13.50;39.40
14775;DHT22;7479;47.042;15.160;2023-03-11T11:47:11;13.60;40.80
14775;DHT22;7479;47.042;15.160;2023-03-11T11:52:10;14.20;40.30
14775;DHT22;7479;47.042;15.160;2023-03-11T11:57:10;13.90;39.00
14775;DHT22;7479;47.042;15.160;2023-03-11T12:02:22;14.00;38.70
14775;DHT22;7479;47.042;15.160;2023-03-11T12:07:35;14.20;39.70
14775;DHT22;7479;47.042;15.160;2023-03-11T12:12:37;13.80;39.60
14775;DHT22;7479;47.042;15.160;2023-03-11T12:17:38;14.10;38.50
14775;DHT22;7479;47.042;15.160;2023-03-11T12:23:01;14.00;39.40
14775;DHT22;7479;47.042;15.160;2023-03-11T12:28:03;14.10;38.40
14775;DHT22;7479;47.042;15.160;2023-03-11T12:33:07;14.80;38.30
14775;DHT22;7479;47.042;15.160;2023-03-11T12:38:14;14.80;36.70
14775;DHT22;7479;47.042;15.160;2023-03-11T12:43:23;14.90;36.30
14775;DHT22;7479;47.042;15.160;2023-03-11T12:48:32;14.80;34.90
14775;DHT22;7479;47.042;15.160;2023-03-11T12:53:42;15.10;36.10
14775;DHT22;7479;47.042;15.160;2023-03-11T12:58:53;14.70;32.70
14775;DHT22;7479;47.042;15.160;2023-03-11T13:09:40;14.60;35.20
14775;DHT22;7479;47.042;15.160;2023-03-11T13:14:34;14.50;34.30
14775;DHT22;7479;47.042;15.160;2023-03-11T13:19:37;14.40;33.10
14775;DHT22;7479;47.042;15.160;2023-03-11T13:24:48;14.20;32.90
14775;DHT22;7479;47.042;15.160;2023-03-11T13:29:51;14.20;34.10
14775;DHT22;7479;47.042;15.160;2023-03-11T13:34:52;14.20;33.30
14775;DHT22;7479;47.042;15.160;2023-03-11T13:40:00;14.50;32.40
14775;DHT22;7479;47.042;15.160;2023-03-11T13:44:56;14.30;34.20
14775;DHT22;7479;47.042;15.160;2023-03-11T13:49:52;15.00;32.30
14775;DHT22;7479;47.042;15.160;2023-03-11T13:54:49;15.70;31.00
14775;DHT22;7479;47.042;15.160;2023-03-11T13:59:50;16.80;32.20
14775;DHT22;7479;47.042;15.160;2023-03-11T14:04:47;17.70;29.70
14775;DHT22;7479;47.042;15.160;2023-03-11T14:09:42;17.00;28.80
14775;DHT22;7479;47.042;15.160;2023-03-11T14:14:44;18.80;29.20
14775;DHT22;7479;47.042;15.160;2023-03-11T14:19:41;18.90;28.80
14775;DHT22;7479;47.042;15.160;2023-03-11T14:24:36;19.80;27.50
14775;DHT22;7479;47.042;15.160;2023-03-11T14:29:40;19.30;28.20
14775;DHT22;7479;47.042;15.160;2023-03-11T14:34:39;20.10;27.90
14775;DHT22;7479;47.042;15.160;2023-03-11T14:39:36;20.00;27.50
14775;DHT22;7479;47.042;15.160;2023-03-11T14:44:32;22.10;27.10
14775;DHT22;7479;47.042;15.160;2023-03-11T14:49:26;23.20;25.60
14775;DHT22;7479;47.042;15.160;2023-03-11T14:54:22;21.90;24.80
14775;DHT22;7479;47.042;15.160;2023-03-11T14:59:24;21.50;24.80
14775;DHT22;7479;47.042;15.160;2023-03-11T15:04:25;22.00;25.10
14775;DHT22;7479;47.042;15.160;2023-03-11T15:09:24;23.30;24.60
14775;DHT22;7479;47.042;15.160;2023-03-11T15:14:23;22.90;23.90
14775;DHT22;7479;47.042;15.160;2023-03-11T15:19:22;21.60;24.20
14775;DHT22;7479;47.042;15.160;2023-03-11T15:24:19;22.50;24.30
14775;DHT22;7479;47.042;15.160;2023-03-11T15:29:15;24.10;24.00
14775;DHT22;7479;47.042;15.160;2023-03-11T15:34:22;23.40;23.30
14775;DHT22;7479;47.042;15.160;2023-03-11T15:39:17;21.20;23.90
14775;DHT22;7479;47.042;15.160;2023-03-11T15:44:26;17.80;25.70
14775;DHT22;7479;47.042;15.160;2023-03-11T15:49:22;15.10;27.70
14775;DHT22;7479;47.042;15.160;2023-03-11T15:54:16;15.60;27.80
14775;DHT22;7479;47.042;15.160;2023-03-11T15:59:13;15.00;28.20
14775;DHT22;7479;47.042;15.160;2023-03-11T16:04:11;13.60;29.20
14775;DHT22;7479;47.042;15.160;2023-03-11T16:09:07;12.70;30.60
14775;DHT22;7479;47.042;15.160;2023-03-11T16:14:02;11.90;31.80
14775;DHT22;7479;47.042;15.160;2023-03-11T16:18:55;11.40;32.80
14775;DHT22;7479;47.042;15.160;2023-03-11T16:23:49;11.20;33.60
14775;DHT22;7479;47.042;15.160;2023-03-11T16:28:45;11.00;33.70
14775;DHT22;7479;47.042;15.160;2023-03-11T16:33:40;10.80;34.50
14775;DHT22;7479;47.042;15.160;2023-03-11T16:38:42;10.40;34.20
14775;DHT22;7479;47.042;15.160;2023-03-11T16:43:36;10.00;35.10
14775;DHT22;7479;47.042;15.160;2023-03-11T16:48:32;9.80;37.80
14775;DHT22;7479;47.042;15.160;2023-03-11T16:53:26;9.50;37.90
14775;DHT22;7479;47.042;15.160;2023-03-11T16:58:19;9.20;38.30
14775;DHT22;7479;47.042;15.160;2023-03-11T17:03:15;9.10;38.70
14775;DHT22;7479;47.042;15.160;2023-03-11T17:08:14;8.90;38.20
14775;DHT22;7479;47.042;15.160;2023-03-11T17:13:11;8.70;39.00
14775;DHT22;7479;47.042;15.160;2023-03-11T17:18:07;8.50;39.40
14775;DHT22;7479;47.042;15.160;2023-03-11T17:23:00;8.30;39.50
14775;DHT22;7479;47.042;15.160;2023-03-11T17:27:56;8.10;39.70
14775;DHT22;7479;47.042;15.160;2023-03-11T17:32:50;8.00;40.50
14775;DHT22;7479;47.042;15.160;2023-03-11T17:37:44;7.80;40.90
